createdAt,value
2023-06-19T00:00:58.274Z,15
2023-06-19T00:11:03.866Z,14
2023-06-19T00:21:09.686Z,14
2023-06-19T00:31:16.945Z,15
2023-06-19T00:41:23.941Z,18
2023-06-19T00:51:30.880Z,15
2023-06-19T01:01:54.195Z,17
2023-06-19T01:12:07.913Z,16
2023-06-19T01:22:01.312Z,17
2023-06-19T01:32:07.921Z,16
2023-06-19T01:42:15.506Z,16
2023-06-19T01:52:22.085Z,16
2023-06-19T02:02:26.905Z,16
2023-06-19T02:12:33.785Z,14
2023-06-19T02:22:40.193Z,13
2023-06-19T02:32:46.577Z,14
2023-06-19T02:42:55.131Z,13
2023-06-19T02:53:00.432Z,16
2023-06-19T03:03:07.184Z,16
2023-06-19T03:13:13.059Z,13
2023-06-19T03:23:18.897Z,16
2023-06-19T03:33:25.318Z,17
2023-06-19T03:43:31.636Z,16
2023-06-19T03:53:39.099Z,14
2023-06-19T04:03:45.966Z,15
2023-06-19T04:13:52.003Z,15
2023-06-19T04:23:57.589Z,15
2023-06-19T04:34:05.445Z,17
2023-06-19T04:44:09.145Z,15
2023-06-19T04:54:17.286Z,14
2023-06-19T05:04:22.739Z,14
2023-06-19T05:14:29.864Z,16
2023-06-19T05:24:36.265Z,17
2023-06-19T05:34:42.224Z,14
2023-06-19T05:44:48.498Z,15
2023-06-19T05:54:55.616Z,11
2023-06-19T06:05:02.184Z,14
2023-06-19T07:56:15.001Z,13
2023-06-19T08:06:21.979Z,10
2023-06-19T08:16:27.995Z,13
2023-06-19T08:26:34.746Z,12
2023-06-19T08:36:40.377Z,10
2023-06-19T08:46:47.076Z,12
2023-06-19T08:56:52.502Z,9
2023-06-19T09:06:58.848Z,11
2023-06-19T09:17:03.293Z,11
2023-06-19T09:27:09.454Z,11
2023-06-19T09:37:15.993Z,13
2023-06-19T09:47:22.306Z,11
2023-06-19T09:57:30.151Z,11
2023-06-19T10:07:38.098Z,14
2023-06-19T10:17:46.390Z,19
2023-06-19T10:27:50.842Z,15
2023-06-19T10:37:58.263Z,11
2023-06-19T10:48:04.733Z,10
2023-06-19T10:58:12.617Z,12
2023-06-19T11:08:19.588Z,13
2023-06-19T11:18:27.023Z,12
2023-06-19T11:28:32.022Z,11
2023-06-19T11:38:37.947Z,11
2023-06-19T11:48:50.659Z,15
2023-06-19T11:58:51.062Z,13
2023-06-19T12:08:57.069Z,14
2023-06-19T12:19:01.760Z,13
2023-06-19T12:29:08.696Z,11
2023-06-19T12:39:15.130Z,14
2023-06-19T12:49:22.109Z,12
2023-06-19T12:59:28.586Z,12
2023-06-19T13:09:37.177Z,11
2023-06-19T13:19:41.167Z,13
2023-06-19T13:29:47.241Z,11
2023-06-19T13:39:54.236Z,12
2023-06-19T13:50:01.419Z,12
2023-06-19T14:00:08.517Z,11
2023-06-19T14:10:14.717Z,11
2023-06-19T14:20:23.031Z,14
2023-06-19T14:30:29.219Z,11
2023-06-19T14:40:36.456Z,10
2023-06-19T14:50:43.932Z,16
2023-06-19T15:00:51.430Z,11
2023-06-19T15:10:56.912Z,12
2023-06-19T15:21:04.946Z,12
2023-06-19T15:31:10.224Z,11
2023-06-19T15:41:18.386Z,12
2023-06-19T15:51:24.604Z,12
2023-06-19T16:01:30.421Z,13
2023-06-19T16:11:37.522Z,12
2023-06-19T16:21:45.566Z,14
2023-06-19T16:32:04.860Z,11
2023-06-19T16:42:04.538Z,11
2023-06-19T16:52:08.287Z,12
2023-06-19T17:02:15.027Z,12
2023-06-19T17:12:24.146Z,13
2023-06-19T17:22:25.686Z,14
2023-06-19T17:32:32.491Z,14
2023-06-19T17:42:40.533Z,14
2023-06-19T17:52:46.116Z,13
2023-06-19T18:02:52.501Z,13
2023-06-19T18:12:59.707Z,13
2023-06-19T18:23:04.394Z,13
2023-06-19T18:33:10.376Z,14
2023-06-19T18:43:16.653Z,12
2023-06-19T18:53:22.500Z,16
2023-06-19T19:03:28.905Z,15
2023-06-19T19:13:34.534Z,14
2023-06-19T19:23:39.461Z,13
2023-06-19T19:33:45.550Z,12
2023-06-19T19:43:51.169Z,10
2023-06-19T19:53:56.129Z,9
2023-06-19T20:04:01.720Z,7
2023-06-19T20:14:08.202Z,9
2023-06-19T20:34:19.291Z,7
2023-06-19T20:44:24.709Z,9
2023-06-19T21:34:55.766Z,5
2023-06-19T21:45:03.321Z,6
2023-06-19T21:55:11.214Z,7
2023-06-19T22:05:17.498Z,8
2023-06-19T22:15:28.269Z,11
2023-06-19T22:25:30.347Z,9
2023-06-19T22:35:39.516Z,6
2023-06-19T22:45:43.727Z,9
2023-06-19T22:55:48.721Z,9
2023-06-19T23:05:55.423Z,10
2023-06-19T23:16:01.669Z,9
2023-06-19T23:26:08.854Z,8
2023-06-19T23:36:15.339Z,8
2023-06-19T23:46:21.679Z,10
2023-06-19T23:56:27.822Z,8
